createdAt,value
2018-11-21T00:01:55.455Z,99564.95
2018-11-21T00:04:57.884Z,99565.73
2018-11-21T00:08:00.339Z,99563.59
2018-11-21T00:11:02.743Z,99557.51
2018-11-21T00:14:05.746Z,99556.22
2018-11-21T00:17:08.216Z,99554.38
2018-11-21T00:20:10.647Z,99561.02
2018-11-21T00:23:13.095Z,99563.00
2018-11-21T00:26:15.518Z,99558.64
2018-11-21T00:29:17.981Z,99556.56
2018-11-21T00:32:21.734Z,99558.77
2018-11-21T00:35:24.204Z,99558.67
2018-11-21T00:38:26.613Z,99566.87
2018-11-21T00:41:29.051Z,99579.53
2018-11-21T00:44:31.490Z,99572.23
2018-11-21T00:47:33.926Z,99571.27
2018-11-21T00:50:36.380Z,99575.67
2018-11-21T00:53:38.843Z,99581.63
2018-11-21T00:56:41.280Z,99587.00
2018-11-21T00:59:43.727Z,99579.13
2018-11-21T01:02:46.157Z,99583.95
2018-11-21T01:05:48.725Z,99581.81
2018-11-21T01:08:51.133Z,99597.23
2018-11-21T01:11:53.536Z,99595.18
2018-11-21T01:14:56.009Z,99592.20
2018-11-21T01:17:58.495Z,99603.38
2018-11-21T01:21:00.947Z,99604.14
2018-11-21T01:24:03.446Z,99607.30
2018-11-21T01:27:05.910Z,99610.70
2018-11-21T01:30:08.561Z,99605.04
2018-11-21T01:33:10.980Z,99611.87
2018-11-21T01:36:13.396Z,99616.57
2018-11-21T01:39:15.886Z,99614.14
2018-11-21T01:42:18.321Z,99622.00
2018-11-21T01:45:20.718Z,99629.37
2018-11-21T01:48:23.120Z,99642.89
2018-11-21T01:51:25.620Z,99645.06
2018-11-21T01:54:28.042Z,99644.01
2018-11-21T01:57:30.683Z,99638.06
2018-11-21T02:00:33.129Z,99637.73
2018-11-21T02:03:35.928Z,99635.46
2018-11-21T02:06:38.515Z,99648.28
2018-11-21T02:09:40.923Z,99630.09
2018-11-21T02:12:43.377Z,99632.42
2018-11-21T02:15:45.797Z,99629.86
2018-11-21T02:18:48.265Z,99631.47
2018-11-21T02:21:50.690Z,99635.66
2018-11-21T02:24:53.142Z,99634.44
2018-11-21T02:27:55.585Z,99630.55
2018-11-21T02:30:58.002Z,99634.63
2018-11-21T02:34:00.427Z,99636.44
2018-11-21T02:37:02.871Z,99648.41
2018-11-21T02:40:06.472Z,99661.73
2018-11-21T02:43:08.894Z,99655.91
2018-11-21T02:46:11.323Z,99652.07
2018-11-21T02:49:13.756Z,99646.78
2018-11-21T02:52:16.188Z,99642.94
2018-11-21T02:55:18.681Z,99649.36
2018-11-21T02:58:21.187Z,99661.73
2018-11-21T03:01:23.630Z,99658.73
2018-11-21T03:04:26.483Z,99666.64
2018-11-21T03:07:28.941Z,99674.91
2018-11-21T03:10:31.347Z,99682.55
2018-11-21T03:13:33.798Z,99682.80
2018-11-21T03:16:36.275Z,99694.24
2018-11-21T03:19:38.722Z,99689.44
2018-11-21T03:22:41.145Z,99683.27
2018-11-21T03:25:43.650Z,99681.28
2018-11-21T03:28:46.066Z,99686.38
2018-11-21T03:31:48.501Z,99695.28
2018-11-21T03:34:50.918Z,99700.62
2018-11-21T03:37:53.340Z,99698.06
2018-11-21T03:40:55.759Z,99701.16
2018-11-21T03:43:58.141Z,99708.31
2018-11-21T03:47:00.588Z,99724.94
2018-11-21T03:50:03.967Z,99740.26
2018-11-21T03:53:06.446Z,99741.28
2018-11-21T03:56:08.842Z,99747.34
2018-11-21T03:59:11.323Z,99746.51
2018-11-21T04:02:13.741Z,99746.44
2018-11-21T04:05:16.161Z,99750.34
2018-11-21T04:08:18.610Z,99754.18
2018-11-21T04:11:21.028Z,99756.25
2018-11-21T04:14:23.457Z,99755.58
2018-11-21T04:17:25.903Z,99759.86
2018-11-21T04:20:28.328Z,99765.56
2018-11-21T04:23:30.789Z,99765.59
2018-11-21T04:26:33.225Z,99773.88
2018-11-21T04:29:35.697Z,99775.08
2018-11-21T04:32:38.140Z,99777.47
2018-11-21T04:35:40.534Z,99778.69
2018-11-21T04:38:42.995Z,99780.64
2018-11-21T04:41:45.457Z,99783.58
2018-11-21T04:44:47.893Z,99794.16
2018-11-21T04:47:50.315Z,99796.70
2018-11-21T04:50:52.779Z,99787.30
2018-11-21T04:53:55.210Z,99791.31
2018-11-21T04:56:57.652Z,99797.03
2018-11-21T05:00:00.099Z,99800.56
2018-11-21T05:03:02.533Z,99805.13
2018-11-21T05:06:05.385Z,99801.13
2018-11-21T05:09:09.737Z,99797.01
2018-11-21T05:12:12.184Z,99794.16
2018-11-21T05:15:14.684Z,99797.45
2018-11-21T05:18:17.122Z,99802.64
2018-11-21T05:21:19.526Z,99812.84
2018-11-21T05:24:21.989Z,99816.62
2018-11-21T05:27:24.442Z,99820.77
2018-11-21T05:30:26.884Z,99820.09
2018-11-21T05:33:29.333Z,99832.97
2018-11-21T05:36:31.754Z,99836.62
2018-11-21T05:39:34.242Z,99847.98
2018-11-21T05:42:36.687Z,99851.06
2018-11-21T05:45:39.134Z,99839.18
2018-11-21T05:48:41.671Z,99846.97
2018-11-21T05:51:44.127Z,99828.11
2018-11-21T05:54:46.549Z,99834.84
2018-11-21T05:57:48.975Z,99834.91
2018-11-21T06:00:51.400Z,99836.21
2018-11-21T06:03:53.825Z,99849.31
2018-11-21T06:06:56.261Z,99849.81
2018-11-21T06:09:58.703Z,99852.91
2018-11-21T06:13:01.141Z,99867.35
2018-11-21T06:16:04.056Z,99866.27
2018-11-21T06:19:06.534Z,99863.69
2018-11-21T06:22:09.028Z,99867.89
2018-11-21T06:25:12.085Z,99864.88
2018-11-21T06:28:14.471Z,99866.63
2018-11-21T06:31:16.877Z,99873.42
2018-11-21T06:34:19.313Z,99876.16
2018-11-21T06:37:21.770Z,99884.44
2018-11-21T06:40:24.176Z,99895.00
2018-11-21T06:43:26.606Z,99892.09
2018-11-21T06:46:29.040Z,99894.65
2018-11-21T06:49:31.482Z,99906.59
2018-11-21T06:52:33.927Z,99911.31
2018-11-21T06:55:36.371Z,99908.08
2018-11-21T06:58:38.809Z,99915.70
2018-11-21T07:01:41.233Z,99928.78
2018-11-21T07:04:43.660Z,99931.15
2018-11-21T07:07:46.188Z,99943.70
2018-11-21T07:10:48.598Z,99943.42
2018-11-21T07:13:51.027Z,99949.27
2018-11-21T07:16:53.473Z,99963.27
2018-11-21T07:19:55.908Z,99977.60
2018-11-21T07:22:58.322Z,99980.61
2018-11-21T07:26:00.752Z,99963.91
2018-11-21T07:29:03.490Z,99965.03
2018-11-21T07:32:05.958Z,99989.27
2018-11-21T07:35:08.738Z,99999.97
2018-11-21T07:38:11.143Z,99992.45
2018-11-21T07:41:13.572Z,99993.53
2018-11-21T07:44:16.016Z,99989.77
2018-11-21T07:47:18.476Z,99991.59
2018-11-21T07:50:21.324Z,99985.63
2018-11-21T07:53:23.754Z,99992.53
2018-11-21T07:57:31.517Z,99996.71
2018-11-21T08:01:06.224Z,99993.27
2018-11-21T08:04:13.308Z,100002.14
2018-11-21T08:07:26.967Z,100005.73
2018-11-21T08:10:48.882Z,99999.86
2018-11-21T08:14:09.762Z,100010.34
2018-11-21T08:17:31.787Z,100015.49
2018-11-21T08:21:11.947Z,100023.52
2018-11-21T08:24:19.776Z,100029.28
2018-11-21T08:27:41.857Z,100031.45
2018-11-21T08:30:44.268Z,100037.49
2018-11-21T08:33:46.721Z,100038.34
2018-11-21T08:36:49.131Z,100042.00
2018-11-21T08:39:51.557Z,100032.03
2018-11-21T08:42:53.978Z,100030.34
2018-11-21T08:45:56.383Z,100038.19
2018-11-21T08:48:58.829Z,100061.89
2018-11-21T08:52:01.746Z,100058.72
2018-11-21T08:55:08.992Z,100050.69
2018-11-21T08:58:09.039Z,100056.94
2018-11-21T09:01:11.874Z,100036.81
2018-11-21T09:04:14.296Z,100046.99
2018-11-21T09:07:16.741Z,100060.73
2018-11-21T09:10:19.127Z,100064.55
2018-11-21T09:13:21.576Z,100061.84
2018-11-21T09:16:23.991Z,100058.28
2018-11-21T09:19:26.425Z,100067.30
2018-11-21T09:22:28.910Z,100068.69
2018-11-21T09:25:31.290Z,100070.22
2018-11-21T09:28:33.729Z,100063.20
2018-11-21T09:31:36.155Z,100075.48
2018-11-21T09:34:38.620Z,100072.91
2018-11-21T09:37:41.093Z,100076.31
2018-11-21T09:40:43.508Z,100073.73
2018-11-21T09:43:45.993Z,100071.85
2018-11-21T09:46:48.535Z,100075.84
2018-11-21T09:49:50.974Z,100076.36
2018-11-21T09:52:53.389Z,100082.56
2018-11-21T09:55:55.797Z,100093.59
2018-11-21T09:58:58.210Z,100089.23
2018-11-21T10:02:56.305Z,100086.66
2018-11-21T10:06:20.495Z,100090.60
2018-11-21T10:09:25.577Z,100100.34
2018-11-21T10:12:28.025Z,100089.52
2018-11-21T10:15:30.428Z,100094.05
2018-11-21T10:18:33.733Z,100096.97
2018-11-21T10:21:36.257Z,100095.74
2018-11-21T10:24:38.669Z,100108.75
2018-11-21T10:27:41.083Z,100118.73
2018-11-21T10:30:43.506Z,100123.27
2018-11-21T10:33:45.991Z,100114.60
2018-11-21T10:36:48.517Z,100121.22
2018-11-21T10:39:50.959Z,100127.80
2018-11-21T10:42:53.360Z,100123.47
2018-11-21T10:45:55.773Z,100128.74
2018-11-21T10:48:58.193Z,100130.88
2018-11-21T10:52:00.610Z,100129.17
2018-11-21T10:55:03.052Z,100122.52
2018-11-21T10:58:05.479Z,100132.16
2018-11-21T11:01:22.532Z,100142.83
2018-11-21T11:04:31.666Z,100142.97
2018-11-21T11:07:52.166Z,100126.02
2018-11-21T11:11:04.439Z,100128.78
2018-11-21T11:14:26.447Z,100133.45
2018-11-21T11:17:46.998Z,100128.44
2018-11-21T11:21:15.060Z,100127.97
2018-11-21T11:24:34.020Z,100122.34
2018-11-21T11:28:04.716Z,100120.99
2018-11-21T11:31:35.607Z,100111.39
2018-11-21T11:35:04.520Z,100105.70
2018-11-21T11:38:35.713Z,100103.53
2018-11-21T11:42:06.686Z,100114.05
2018-11-21T11:45:27.317Z,100111.02
2018-11-21T11:48:58.281Z,100110.61
2018-11-21T11:52:19.636Z,100107.98
2018-11-21T11:55:40.874Z,100104.48
2018-11-21T11:59:21.328Z,100107.58
2018-11-21T12:02:37.287Z,100118.37
2018-11-21T12:06:14.844Z,100117.59
2018-11-21T12:09:37.067Z,100118.50
2018-11-21T12:12:58.412Z,100114.56
2018-11-21T12:16:18.076Z,100116.77
2018-11-21T12:19:40.272Z,100115.48
2018-11-21T12:22:59.325Z,100112.36
2018-11-21T12:26:30.561Z,100117.24
2018-11-21T12:29:44.013Z,100109.40
2018-11-21T12:33:18.620Z,100109.84
2018-11-21T12:36:35.846Z,100111.15
2018-11-21T12:40:16.314Z,100117.18
2018-11-21T12:43:26.237Z,100116.75
2018-11-21T12:46:51.338Z,100112.45
2018-11-21T12:50:12.584Z,100116.00
2018-11-21T12:53:37.967Z,100112.07
2018-11-21T12:56:52.688Z,100113.78
2018-11-21T13:00:20.816Z,100119.05
2018-11-21T13:03:41.761Z,100114.69
2018-11-21T13:07:00.669Z,100112.93
2018-11-21T13:10:32.045Z,100114.70
2018-11-21T13:14:09.041Z,100113.80
2018-11-21T13:17:30.332Z,100113.78
2018-11-21T13:20:44.808Z,100104.14
2018-11-21T13:24:08.990Z,100098.05
2018-11-21T13:27:33.622Z,100109.41
2018-11-21T13:30:54.214Z,100132.14
2018-11-21T13:34:04.842Z,100135.63
2018-11-21T13:37:25.346Z,100135.97
2018-11-21T13:40:45.009Z,100142.55
2018-11-21T13:44:00.827Z,100147.38
2018-11-21T13:47:21.667Z,100154.48
2018-11-21T13:50:43.699Z,100137.98
2018-11-21T13:54:17.937Z,100139.60
2018-11-21T13:57:20.544Z,100140.39
2018-11-21T14:00:22.957Z,100138.59
2018-11-21T14:03:25.361Z,100142.05
2018-11-21T14:06:27.787Z,100145.07
2018-11-21T14:09:30.224Z,100137.62
2018-11-21T14:12:32.639Z,100141.16
2018-11-21T14:15:35.102Z,100147.69
2018-11-21T14:18:37.538Z,100145.46
2018-11-21T14:21:39.970Z,100150.25
2018-11-21T14:24:42.469Z,100147.61
2018-11-21T14:27:45.851Z,100140.58
2018-11-21T14:30:47.345Z,100144.06
2018-11-21T14:33:49.813Z,100142.75
2018-11-21T14:36:52.253Z,100146.70
2018-11-21T14:39:54.696Z,100156.23
2018-11-21T14:42:57.129Z,100157.52
2018-11-21T14:45:59.780Z,100160.13
2018-11-21T14:49:02.220Z,100161.86
2018-11-21T14:52:04.667Z,100167.08
2018-11-21T14:55:07.091Z,100171.80
2018-11-21T14:58:09.618Z,100172.97
2018-11-21T15:01:12.064Z,100168.08
2018-11-21T15:04:14.513Z,100169.14
2018-11-21T15:07:17.021Z,100180.27
2018-11-21T15:10:19.474Z,100183.14
2018-11-21T15:13:22.087Z,100178.61
2018-11-21T15:16:24.480Z,100175.46
2018-11-21T15:19:26.923Z,100171.50
2018-11-21T15:22:29.405Z,100178.35
2018-11-21T15:25:31.833Z,100184.36
2018-11-21T15:28:34.253Z,100185.22
2018-11-21T15:31:36.667Z,100188.66
2018-11-21T15:34:39.102Z,100196.98
2018-11-21T15:37:42.209Z,100191.66
2018-11-21T15:40:47.046Z,100191.16
2018-11-21T15:43:47.055Z,100197.59
2018-11-21T15:46:49.811Z,100206.31
2018-11-21T15:49:52.348Z,100211.48
2018-11-21T15:52:54.771Z,100204.11
2018-11-21T15:55:57.207Z,100215.48
2018-11-21T15:58:59.645Z,100216.69
2018-11-21T16:02:02.085Z,100223.61
2018-11-21T16:05:05.100Z,100224.89
2018-11-21T16:08:07.504Z,100227.11
2018-11-21T16:11:10.046Z,100231.83
2018-11-21T16:14:12.509Z,100233.09
2018-11-21T16:17:14.930Z,100231.64
2018-11-21T16:20:17.759Z,100228.43
2018-11-21T16:23:20.155Z,100218.89
2018-11-21T16:26:22.565Z,100225.41
2018-11-21T16:29:24.969Z,100225.63
2018-11-21T16:32:27.430Z,100237.39
2018-11-21T16:35:29.865Z,100238.78
2018-11-21T16:38:33.004Z,100240.00
2018-11-21T16:41:35.452Z,100241.25
2018-11-21T16:44:37.891Z,100246.89
2018-11-21T16:47:40.322Z,100241.78
2018-11-21T16:50:42.739Z,100251.32
2018-11-21T16:53:45.199Z,100258.91
2018-11-21T16:56:47.648Z,100252.94
2018-11-21T16:59:50.139Z,100261.82
2018-11-21T17:02:52.579Z,100263.98
2018-11-21T17:05:55.018Z,100278.30
2018-11-21T17:08:57.426Z,100268.74
2018-11-21T17:11:59.866Z,100269.77
2018-11-21T17:15:02.307Z,100266.16
2018-11-21T17:18:04.973Z,100271.95
2018-11-21T17:21:07.380Z,100270.31
2018-11-21T17:24:09.829Z,100275.45
2018-11-21T17:27:12.257Z,100274.02
2018-11-21T17:30:15.864Z,100272.75
2018-11-21T17:33:18.292Z,100273.49
2018-11-21T17:36:20.732Z,100277.12
2018-11-21T17:39:23.144Z,100271.89
2018-11-21T17:42:25.555Z,100278.64
2018-11-21T17:45:27.990Z,100282.56
2018-11-21T17:48:30.440Z,100284.67
2018-11-21T17:51:32.918Z,100287.13
2018-11-21T17:54:35.333Z,100286.61
2018-11-21T17:57:37.947Z,100285.46
2018-11-21T18:00:40.365Z,100294.91
2018-11-21T18:03:42.801Z,100301.16
2018-11-21T18:06:45.301Z,100304.59
2018-11-21T18:09:47.737Z,100300.34
2018-11-21T18:12:50.152Z,100307.63
2018-11-21T18:15:52.569Z,100301.23
2018-11-21T18:18:54.990Z,100313.75
2018-11-21T18:21:57.474Z,100317.20
2018-11-21T18:24:59.902Z,100314.53
2018-11-21T18:28:02.896Z,100315.45
2018-11-21T18:31:05.445Z,100322.97
2018-11-21T18:34:07.921Z,100330.89
2018-11-21T18:37:10.346Z,100331.05
2018-11-21T18:40:14.736Z,100332.78
2018-11-21T18:43:17.189Z,100336.27
2018-11-21T18:46:19.631Z,100329.32
2018-11-21T18:49:22.046Z,100330.66
2018-11-21T18:52:24.533Z,100335.00
2018-11-21T18:55:51.360Z,100336.01
2018-11-21T18:59:31.788Z,100343.40
2018-11-21T19:02:34.199Z,100337.77
2018-11-21T19:05:36.672Z,100340.41
2018-11-21T19:08:39.290Z,100344.83
2018-11-21T19:11:41.990Z,100349.19
2018-11-21T19:14:44.615Z,100347.02
2018-11-21T19:17:47.345Z,100348.35
2018-11-21T19:20:50.216Z,100348.25
2018-11-21T19:23:52.842Z,100348.70
2018-11-21T19:26:55.668Z,100347.82
2018-11-21T19:29:58.319Z,100340.43
2018-11-21T19:33:01.002Z,100347.83
2018-11-21T19:36:04.163Z,100347.34
2018-11-21T19:39:11.221Z,100346.06
2018-11-21T19:42:13.795Z,100358.70
2018-11-21T19:45:16.769Z,100359.59
2018-11-21T19:48:19.333Z,100358.38
2018-11-21T19:51:21.992Z,100354.36
2018-11-21T19:54:25.285Z,100358.20
2018-11-21T19:57:27.807Z,100359.98
2018-11-21T20:00:31.478Z,100365.67
2018-11-21T20:03:33.928Z,100366.46
2018-11-21T20:06:36.423Z,100358.59
2018-11-21T20:09:38.882Z,100366.13
2018-11-21T20:12:41.856Z,100368.67
2018-11-21T20:15:44.281Z,100369.98
2018-11-21T20:18:46.753Z,100367.05
2018-11-21T20:21:49.203Z,100365.24
2018-11-21T20:24:51.697Z,100377.00
2018-11-21T20:27:54.124Z,100374.02
2018-11-21T20:30:57.455Z,100374.20
2018-11-21T20:33:59.956Z,100375.77
2018-11-21T20:37:02.617Z,100367.50
2018-11-21T20:40:09.417Z,100368.36
2018-11-21T20:43:11.822Z,100369.34
2018-11-21T20:46:14.232Z,100361.83
2018-11-21T20:49:16.760Z,100363.50
2018-11-21T20:52:19.191Z,100367.03
2018-11-21T20:55:23.102Z,100368.76
2018-11-21T20:58:25.729Z,100374.04
2018-11-21T21:01:28.194Z,100372.28
2018-11-21T21:04:30.585Z,100370.55
2018-11-21T21:07:33.113Z,100369.28
2018-11-21T21:10:43.009Z,100367.95
